^^
B2 Weather Station Historical Data
Daily Summary for March 16, 2018 Units:  English    Metric   Both
Daily Weekly Monthly Yearly Custom
  High: Low: Average:
Temperature: 41.6 °F 21.7 °F 31.8 °F
Dew Point: 26.7 °F 18.6 °F 23.5 °F
Humidity: 90% 50% 73%
Wind Speed: 16.1mph 0.0mph 5.7mph
Wind Gust: 16.1mph - -
Wind- - ENE
Pressure: 30.23 in 30.02 in -
Precipitation: 0.00 in    
Historical Graphs
 
 
Tabular Data for March 16, 2018
Time Temperature Dew Point Pressure Wind Wind Speed Wind Gust Humidity Rainfall Rate (Hourly) solar
00:00 27.0 °F 24.5 °F 30.06 in NE 3.0 mph 3.0 mph 90% 0.00 in 0.0 W/m2
00:05 27.1 °F 24.6 °F 30.06 in NE 3.5 mph 3.5 mph 90% 0.00 in 0.0 W/m2
00:10 27.2 °F 24.7 °F 30.06 in NNE 2.3 mph 2.3 mph 90% 0.00 in 0.0 W/m2
00:15 27.3 °F 24.8 °F 30.07 in NE 4.6 mph 4.6 mph 90% 0.00 in 0.0 W/m2
00:20 27.5 °F 25.0 °F 30.06 in NE 3.5 mph 3.5 mph 90% 0.00 in 0.0 W/m2
00:25 27.6 °F 25.1 °F 30.06 in NE 4.0 mph 4.0 mph 90% 0.00 in 0.0 W/m2
00:30 27.7 °F 24.9 °F 30.06 in NNE 3.5 mph 3.5 mph 89% 0.00 in 0.0 W/m2
00:35 27.6 °F 24.8 °F 30.07 in NE 2.3 mph 2.3 mph 89% 0.00 in 0.0 W/m2
00:40 27.4 °F 24.6 °F 30.07 in Calm     89% 0.00 in 0.0 W/m2
00:45 27.3 °F 24.5 °F 30.07 in NNE 1.2 mph 1.3 mph 89% 0.00 in 0.0 W/m2
00:50 27.2 °F 24.1 °F 30.07 in NE 2.3 mph 2.3 mph 88% 0.00 in 0.0 W/m2
00:55 27.2 °F 24.1 °F 30.07 in NE 2.3 mph 2.3 mph 88% 0.00 in 0.0 W/m2
01:00 27.1 °F 24.0 °F 30.07 in NNE 3.5 mph 3.5 mph 88% 0.00 in 0.0 W/m2
01:06 26.9 °F 23.8 °F 30.08 in NNE 3.5 mph 3.5 mph 88% 0.00 in 0.0 W/m2
01:11 26.8 °F 23.7 °F 30.08 in NNE 3.5 mph 3.5 mph 88% 0.00 in 0.0 W/m2
01:16 26.6 °F 23.5 °F 30.08 in NNE 3.5 mph 3.5 mph 88% 0.00 in 0.0 W/m2
01:21 26.4 °F 23.3 °F 30.08 in NNE 3.5 mph 3.5 mph 88% 0.00 in 0.0 W/m2
01:26 26.4 °F 23.6 °F 30.08 in NNE 5.8 mph 5.8 mph 89% 0.00 in 0.0 W/m2
01:31 26.6 °F 23.8 °F 30.08 in NNE 5.8 mph 5.8 mph 89% 0.00 in 0.0 W/m2
01:36 26.6 °F 23.5 °F 30.08 in NE 4.6 mph 4.6 mph 88% 0.00 in 0.0 W/m2
01:41 26.6 °F 23.5 °F 30.08 in NNE 4.6 mph 4.6 mph 88% 0.00 in 0.0 W/m2
01:46 26.5 °F 23.4 °F 30.09 in NNE 3.5 mph 3.5 mph 88% 0.00 in 0.0 W/m2
01:51 26.2 °F 23.1 °F 30.09 in NE 2.3 mph 2.3 mph 88% 0.00 in 0.0 W/m2
01:56 25.9 °F 22.6 °F 30.09 in Calm     87% 0.00 in 0.0 W/m2
02:01 25.8 °F 22.7 °F 30.09 in Calm     88% 0.00 in 0.0 W/m2
02:06 25.7 °F 22.6 °F 30.10 in Calm     88% 0.00 in 0.0 W/m2
02:11 25.4 °F 22.1 °F 30.10 in Calm     87% 0.00 in 0.0 W/m2
02:16 25.2 °F 21.9 °F 30.11 in Calm     87% 0.00 in 0.0 W/m2
02:21 24.7 °F 21.4 °F 30.11 in Calm     87% 0.00 in 0.0 W/m2
02:26 24.7 °F 21.7 °F 30.11 in Calm     88% 0.00 in 0.0 W/m2
02:31 24.3 °F 21.3 °F 30.11 in Calm     88% 0.00 in 0.0 W/m2
02:36 24.2 °F 21.2 °F 30.11 in Calm     88% 0.00 in 0.0 W/m2
02:41 24.0 °F 21.0 °F 30.11 in Calm     88% 0.00 in 0.0 W/m2
02:46 24.0 °F 21.2 °F 30.11 in Calm     89% 0.00 in 0.0 W/m2
02:51 24.1 °F 21.3 °F 30.11 in Calm     89% 0.00 in 0.0 W/m2
02:56 23.6 °F 20.3 °F 30.11 in Calm     87% 0.00 in 0.0 W/m2
03:01 23.3 °F 20.3 °F 30.11 in Calm     88% 0.00 in 0.0 W/m2
03:06 23.1 °F 20.1 °F 30.11 in Calm     88% 0.00 in 0.0 W/m2
03:11 22.9 °F 19.9 °F 30.11 in Calm     88% 0.00 in 0.0 W/m2
03:16 22.9 °F 20.1 °F 30.11 in Calm     89% 0.00 in 0.0 W/m2
03:21 22.9 °F 20.1 °F 30.11 in Calm     89% 0.00 in 0.0 W/m2
03:26 22.9 °F 20.1 °F 30.11 in Calm     89% 0.00 in 0.0 W/m2
03:31 22.9 °F 20.1 °F 30.11 in Calm     89% 0.00 in 0.0 W/m2
03:36 22.6 °F 19.6 °F 30.11 in Calm     88% 0.00 in 0.0 W/m2
03:41 22.2 °F 19.2 °F 30.11 in Calm     88% 0.00 in 0.0 W/m2
03:46 21.9 °F 18.9 °F 30.11 in Calm     88% 0.00 in 0.0 W/m2
03:51 21.8 °F 18.8 °F 30.12 in Calm     88% 0.00 in 0.0 W/m2
03:56 21.8 °F 18.8 °F 30.12 in Calm     88% 0.00 in 0.0 W/m2
04:01 21.7 °F 19.0 °F 30.12 in Calm     89% 0.00 in 0.0 W/m2
04:06 21.9 °F 19.2 °F 30.12 in Calm     89% 0.00 in 0.0 W/m2
04:11 22.0 °F 19.3 °F 30.12 in Calm     89% 0.00 in 0.0 W/m2
04:16 22.2 °F 19.5 °F 30.12 in Calm     89% 0.00 in 0.0 W/m2
04:21 22.4 °F 19.6 °F 30.12 in Calm     89% 0.00 in 0.0 W/m2
04:26 22.4 °F 19.6 °F 30.12 in Calm     89% 0.00 in 0.0 W/m2
04:31 22.5 °F 19.7 °F 30.12 in Calm     89% 0.00 in 0.0 W/m2
04:36 22.5 °F 19.7 °F 30.12 in Calm     89% 0.00 in 0.0 W/m2
04:41 22.2 °F 18.9 °F 30.13 in Calm     87% 0.00 in 0.0 W/m2
04:46 22.0 °F 19.0 °F 30.13 in Calm     88% 0.00 in 0.0 W/m2
04:51 22.1 °F 19.1 °F 30.13 in Calm     88% 0.00 in 0.0 W/m2
04:56 22.2 °F 19.2 °F 30.13 in Calm     88% 0.00 in 0.0 W/m2
05:01 22.2 °F 19.2 °F 30.14 in Calm     88% 0.00 in 0.0 W/m2
05:06 21.9 °F 18.6 °F 30.14 in Calm     87% 0.00 in 0.0 W/m2
05:11 22.0 °F 19.0 °F 30.14 in Calm     88% 0.00 in 0.0 W/m2
05:16 22.0 °F 19.0 °F 30.14 in Calm     88% 0.00 in 0.0 W/m2
05:21 22.2 °F 19.2 °F 30.15 in Calm     88% 0.00 in 0.0 W/m2
05:26 22.4 °F 19.4 °F 30.15 in Calm     88% 0.00 in 0.0 W/m2
05:31 22.5 °F 19.5 °F 30.16 in Calm     88% 0.00 in 0.0 W/m2
05:36 22.7 °F 19.7 °F 30.16 in Calm     88% 0.00 in 0.0 W/m2
05:41 22.6 °F 19.3 °F 30.16 in Calm     87% 0.00 in 0.0 W/m2
05:46 22.6 °F 19.3 °F 30.16 in Calm     87% 0.00 in 0.0 W/m2
05:51 22.4 °F 18.8 °F 30.16 in Calm     86% 0.00 in 0.0 W/m2
05:56 22.4 °F 18.8 °F 30.16 in Calm     86% 0.00 in 0.0 W/m2
06:01 22.4 °F 18.8 °F 30.16 in Calm     86% 0.00 in 0.0 W/m2
06:06 22.4 °F 19.1 °F 30.16 in Calm     87% 0.00 in 0.0 W/m2
06:11 22.6 °F 19.3 °F 30.17 in Calm     87% 0.00 in 0.0 W/m2
06:16 22.7 °F 19.4 °F 30.17 in Calm     87% 0.00 in 0.0 W/m2
06:21 22.8 °F 19.2 °F 30.17 in Calm     86% 0.00 in 0.0 W/m2
06:26 22.6 °F 18.8 °F 30.17 in Calm     85% 0.00 in 0.0 W/m2
06:31 22.6 °F 19.0 °F 30.17 in Calm     86% 0.00 in 0.0 W/m2
06:36 22.7 °F 19.4 °F 30.17 in Calm     87% 0.00 in 0.0 W/m2
06:41 22.7 °F 19.4 °F 30.17 in Calm     87% 0.00 in 0.0 W/m2
06:46 22.8 °F 19.5 °F 30.17 in NNE 2.0 mph 2.0 mph 87% 0.00 in 0.0 W/m2
06:51 23.2 °F 20.2 °F 30.16 in NNE 4.6 mph 4.6 mph 88% 0.00 in 0.0 W/m2
06:56 23.6 °F 20.6 °F 30.17 in NNE 5.8 mph 5.8 mph 88% 0.00 in 0.0 W/m2
07:01 23.6 °F 20.6 °F 30.17 in NE 4.6 mph 4.6 mph 88% 0.00 in 5.0 W/m2
07:06 23.6 °F 20.6 °F 30.16 in NE 5.0 mph 5.0 mph 88% 0.00 in 9.0 W/m2
07:11 24.2 °F 21.4 °F 30.16 in NE 10.0 mph 10.0 mph 89% 0.00 in 16.0 W/m2
07:16 25.0 °F 22.2 °F 30.16 in ENE 9.2 mph 9.2 mph 89% 0.00 in 23.0 W/m2
07:21 25.6 °F 22.8 °F 30.16 in NNE 9.2 mph 9.2 mph 89% 0.00 in 32.0 W/m2
07:26 26.1 °F 23.0 °F 30.16 in NE 10.4 mph 10.4 mph 88% 0.00 in 42.0 W/m2
07:31 26.5 °F 23.4 °F 30.17 in NE 8.1 mph 8.1 mph 88% 0.00 in 56.0 W/m2
07:36 26.8 °F 23.4 °F 30.17 in NE 6.0 mph 6.0 mph 87% 0.00 in 47.0 W/m2
07:41 26.9 °F 23.5 °F 30.17 in NE 6.9 mph 6.9 mph 87% 0.00 in 58.0 W/m2
07:46 27.1 °F 23.7 °F 30.18 in NE 6.9 mph 6.9 mph 87% 0.00 in 86.0 W/m2
07:51 27.5 °F 24.1 °F 30.17 in NE 9.2 mph 9.2 mph 87% 0.00 in 104.0 W/m2
07:56 27.8 °F 24.2 °F 30.17 in NE 8.1 mph 8.1 mph 86% 0.00 in 98.0 W/m2
08:01 28.1 °F 24.5 °F 30.17 in NE 6.0 mph 6.0 mph 86% 0.00 in 121.0 W/m2
08:06 28.4 °F 24.5 °F 30.18 in NE 6.9 mph 6.9 mph 85% 0.00 in 114.0 W/m2
08:11 28.8 °F 25.1 °F 30.18 in NNE 5.8 mph 5.8 mph 86% 0.00 in 160.0 W/m2
08:16 29.1 °F 25.7 °F 30.18 in NE 3.5 mph 3.5 mph 87% 0.00 in 174.0 W/m2
08:21 29.5 °F 25.8 °F 30.19 in NE 6.9 mph 6.9 mph 86% 0.00 in 174.0 W/m2
08:26 29.7 °F 25.5 °F 30.19 in NE 10.4 mph 10.4 mph 84% 0.00 in 183.0 W/m2
08:31 29.8 °F 25.3 °F 30.19 in NE 9.2 mph 9.2 mph 83% 0.00 in 199.0 W/m2
08:36 29.9 °F 25.1 °F 30.19 in ENE 12.0 mph 12.0 mph 82% 0.00 in 211.0 W/m2
08:41 30.2 °F 25.1 °F 30.18 in NE 13.0 mph 13.0 mph 81% 0.00 in 253.0 W/m2
08:46 30.3 °F 24.9 °F 30.19 in NE 11.5 mph 11.5 mph 80% 0.00 in 267.0 W/m2
08:51 30.6 °F 25.2 °F 30.19 in ENE 10.4 mph 10.4 mph 80% 0.00 in 265.0 W/m2
08:56 30.8 °F 25.7 °F 30.19 in NE 9.2 mph 9.2 mph 81% 0.00 in 285.0 W/m2
09:01 31.0 °F 25.2 °F 30.19 in NE 13.8 mph 13.8 mph 79% 0.00 in 334.0 W/m2
09:06 30.8 °F 25.1 °F 30.19 in ENE 8.1 mph 8.1 mph 79% 0.00 in 318.0 W/m2
09:11 30.6 °F 25.2 °F 30.20 in ENE 6.9 mph 6.9 mph 80% 0.00 in 279.0 W/m2
09:17 30.4 °F 25.0 °F 30.20 in ESE 7.0 mph 7.0 mph 80% 0.00 in 313.0 W/m2
09:22 30.5 °F 24.8 °F 30.21 in East 6.9 mph 6.9 mph 79% 0.00 in 297.0 W/m2
09:27 30.8 °F 25.1 °F 30.21 in East 6.0 mph 6.0 mph 79% 0.00 in 306.0 W/m2
09:32 30.8 °F 24.7 °F 30.22 in ESE 6.9 mph 6.9 mph 78% 0.00 in 260.0 W/m2
09:37 30.8 °F 24.4 °F 30.21 in East 8.1 mph 8.1 mph 77% 0.00 in 329.0 W/m2
09:42 31.0 °F 24.6 °F 30.22 in East 6.9 mph 6.9 mph 77% 0.00 in 362.0 W/m2
09:47 31.3 °F 24.9 °F 30.22 in ENE 6.9 mph 6.9 mph 77% 0.00 in 385.0 W/m2
09:52 31.7 °F 25.3 °F 30.22 in East 8.1 mph 8.1 mph 77% 0.00 in 380.0 W/m2
09:57 31.9 °F 24.9 °F 30.22 in East 6.9 mph 6.9 mph 75% 0.00 in 404.0 W/m2
10:02 32.0 °F 24.6 °F 30.22 in NE 9.2 mph 9.2 mph 74% 0.00 in 376.0 W/m2
10:07 32.0 °F 24.6 °F 30.22 in East 8.1 mph 8.1 mph 74% 0.00 in 434.0 W/m2
10:12 32.3 °F 24.9 °F 30.22 in ENE 5.8 mph 5.8 mph 74% 0.00 in 445.0 W/m2
10:17 32.5 °F 24.5 °F 30.22 in East 6.9 mph 6.9 mph 72% 0.00 in 385.0 W/m2
10:22 32.3 °F 24.6 °F 30.22 in East 9.2 mph 9.2 mph 73% 0.00 in 410.0 W/m2
10:27 32.5 °F 25.1 °F 30.23 in East 9.2 mph 9.2 mph 74% 0.00 in 485.0 W/m2
10:32 32.7 °F 25.3 °F 30.23 in SE 9.2 mph 9.2 mph 74% 0.00 in 536.0 W/m2
10:37 33.0 °F 25.0 °F 30.23 in ESE 6.9 mph 6.9 mph 72% 0.00 in 520.0 W/m2
10:42 33.0 °F 25.0 °F 30.23 in East 5.8 mph 5.8 mph 72% 0.00 in 468.0 W/m2
10:47 32.8 °F 24.4 °F 30.23 in SE 9.2 mph 9.2 mph 71% 0.00 in 454.0 W/m2
10:52 32.8 °F 24.4 °F 30.23 in ESE 4.6 mph 4.6 mph 71% 0.00 in 487.0 W/m2
10:57 33.2 °F 24.8 °F 30.23 in East 6.9 mph 6.9 mph 71% 0.00 in 468.0 W/m2
11:02 33.3 °F 24.9 °F 30.23 in ENE 5.0 mph 5.0 mph 71% 0.00 in 529.0 W/m2
11:07 34.1 °F 25.7 °F 30.23 in ENE 6.9 mph 6.9 mph 71% 0.00 in 534.0 W/m2
11:12 34.0 °F 24.5 °F 30.23 in East 8.1 mph 8.1 mph 68% 0.00 in 520.0 W/m2
11:17 34.0 °F 24.9 °F 30.23 in East 4.6 mph 4.6 mph 69% 0.00 in 441.0 W/m2
11:22 34.0 °F 24.5 °F 30.23 in NE 5.8 mph 5.8 mph 68% 0.00 in 555.0 W/m2
11:27 34.4 °F 25.3 °F 30.23 in ENE 9.2 mph 9.2 mph 69% 0.00 in 701.0 W/m2
11:32 35.0 °F 25.5 °F 30.22 in ENE 6.0 mph 6.0 mph 68% 0.00 in 438.0 W/m2
11:37 34.8 °F 24.6 °F 30.22 in ENE 9.2 mph 9.2 mph 66% 0.00 in 397.0 W/m2
11:42 34.8 °F 25.0 °F 30.22 in NE 10.4 mph 10.4 mph 67% 0.00 in 554.0 W/m2
11:47 35.3 °F 26.1 °F 30.21 in ESE 3.5 mph 3.5 mph 69% 0.00 in 580.0 W/m2
11:52 36.1 °F 25.5 °F 30.21 in ENE 11.5 mph 11.5 mph 65% 0.00 in 617.0 W/m2
11:57 36.1 °F 25.5 °F 30.21 in ENE 3.5 mph 3.5 mph 65% 0.00 in 654.0 W/m2
12:02 36.4 °F 25.7 °F 30.21 in NE 9.2 mph 9.2 mph 65% 0.00 in 659.0 W/m2
12:07 36.5 °F 25.1 °F 30.22 in East 10.4 mph 10.4 mph 63% 0.00 in 584.0 W/m2
12:12 36.6 °F 24.8 °F 30.21 in ENE 9.2 mph 9.2 mph 62% 0.00 in 431.0 W/m2
12:17 36.3 °F 24.1 °F 30.21 in NE 6.9 mph 6.9 mph 61% 0.00 in 410.0 W/m2
12:22 36.2 °F 24.4 °F 30.22 in ENE 9.2 mph 9.2 mph 62% 0.00 in 485.0 W/m2
12:27 36.3 °F 24.9 °F 30.21 in East 10.0 mph 10.0 mph 63% 0.00 in 742.0 W/m2
12:32 36.4 °F 24.6 °F 30.21 in ENE 7.0 mph 7.0 mph 62% 0.00 in 566.0 W/m2
12:37 36.5 °F 25.5 °F 30.21 in ENE 5.8 mph 5.8 mph 64% 0.00 in 439.0 W/m2
12:42 36.6 °F 24.8 °F 30.21 in ENE 6.9 mph 6.9 mph 62% 0.00 in 693.0 W/m2
12:47 36.9 °F 24.7 °F 30.21 in East 12.7 mph 12.7 mph 61% 0.00 in 490.0 W/m2
12:52 36.7 °F 23.3 °F 30.20 in ESE 9.2 mph 9.2 mph 58% 0.00 in 420.0 W/m2
12:57 37.2 °F 24.6 °F 30.20 in East 10.4 mph 10.4 mph 60% 0.00 in 744.0 W/m2
13:02 38.0 °F 24.9 °F 30.20 in East 8.1 mph 8.1 mph 59% 0.00 in 740.0 W/m2
13:07 38.3 °F 24.4 °F 30.20 in ENE 6.9 mph 6.9 mph 57% 0.00 in 538.0 W/m2
13:12 37.7 °F 23.8 °F 30.20 in ESE 3.5 mph 3.5 mph 57% 0.00 in 555.0 W/m2
13:17 37.5 °F 23.6 °F 30.20 in ESE 5.8 mph 5.8 mph 57% 0.00 in 506.0 W/m2
13:22 37.9 °F 23.6 °F 30.20 in ENE 9.2 mph 9.2 mph 56% 0.00 in 645.0 W/m2
13:27 38.1 °F 23.3 °F 30.19 in East 6.9 mph 6.9 mph 55% 0.00 in 541.0 W/m2
13:32 38.5 °F 23.7 °F 30.19 in NE 4.6 mph 4.6 mph 55% 0.00 in 621.0 W/m2
13:37 38.5 °F 24.1 °F 30.19 in East 8.1 mph 8.1 mph 56% 0.00 in 694.0 W/m2
13:42 39.1 °F 25.1 °F 30.18 in East 10.4 mph 10.4 mph 57% 0.00 in 865.0 W/m2
13:47 40.1 °F 24.8 °F 30.18 in ENE 12.0 mph 12.0 mph 54% 0.00 in 765.0 W/m2
13:52 39.8 °F 24.5 °F 30.18 in East 11.5 mph 11.5 mph 54% 0.00 in 919.0 W/m2
13:57 40.0 °F 24.7 °F 30.18 in NE 6.9 mph 6.9 mph 54% 0.00 in 800.0 W/m2
14:02 40.3 °F 24.1 °F 30.17 in ENE 9.0 mph 9.0 mph 52% 0.00 in 816.0 W/m2
14:07 40.4 °F 24.1 °F 30.17 in ENE 10.4 mph 10.4 mph 52% 0.00 in 763.0 W/m2
14:12 40.6 °F 24.8 °F 30.17 in NE 9.2 mph 9.2 mph 53% 0.00 in 703.0 W/m2
14:17 40.5 °F 23.8 °F 30.16 in East 13.8 mph 13.8 mph 51% 0.00 in 740.0 W/m2
14:22 40.5 °F 24.2 °F 30.16 in ENE 11.5 mph 11.5 mph 52% 0.00 in 756.0 W/m2
14:27 40.6 °F 24.8 °F 30.16 in ENE 10.4 mph 10.4 mph 53% 0.00 in 636.0 W/m2
14:32 40.6 °F 24.3 °F 30.16 in East 13.0 mph 13.0 mph 52% 0.00 in 443.0 W/m2
14:37 40.0 °F 24.7 °F 30.15 in East 8.1 mph 8.1 mph 54% 0.00 in 645.0 W/m2
14:42 40.5 °F 23.8 °F 30.14 in ESE 9.0 mph 9.0 mph 51% 0.00 in 480.0 W/m2
14:47 40.6 °F 25.7 °F 30.14 in East 12.7 mph 12.7 mph 55% 0.00 in 696.0 W/m2
14:52 40.9 °F 24.6 °F 30.14 in East 9.2 mph 9.2 mph 52% 0.00 in 638.0 W/m2
14:57 40.8 °F 25.0 °F 30.13 in ENE 11.5 mph 11.5 mph 53% 0.00 in 657.0 W/m2
15:02 41.2 °F 24.9 °F 30.13 in East 11.5 mph 11.5 mph 52% 0.00 in 701.0 W/m2
15:07 41.6 °F 24.8 °F 30.13 in ENE 11.5 mph 11.5 mph 51% 0.00 in 598.0 W/m2
15:12 41.5 °F 24.2 °F 30.12 in ENE 11.5 mph 11.5 mph 50% 0.00 in 387.0 W/m2
15:17 40.8 °F 24.1 °F 30.12 in East 11.5 mph 11.5 mph 51% 0.00 in 489.0 W/m2
15:22 40.7 °F 24.9 °F 30.12 in ENE 12.7 mph 12.7 mph 53% 0.00 in 469.0 W/m2
15:27 40.7 °F 24.9 °F 30.12 in East 16.1 mph 16.1 mph 53% 0.00 in 439.0 W/m2
15:32 40.8 °F 24.5 °F 30.11 in ENE 11.5 mph 11.5 mph 52% 0.00 in 410.0 W/m2
15:37 40.9 °F 25.1 °F 30.11 in ENE 9.2 mph 9.2 mph 53% 0.00 in 462.0 W/m2
15:42 41.1 °F 24.8 °F 30.11 in East 10.4 mph 10.4 mph 52% 0.00 in 399.0 W/m2
15:47 41.2 °F 24.4 °F 30.11 in East 5.8 mph 5.8 mph 51% 0.00 in 390.0 W/m2
15:52 41.2 °F 25.3 °F 30.11 in ENE 8.1 mph 8.1 mph 53% 0.00 in 369.0 W/m2
15:57 41.4 °F 25.1 °F 30.11 in East 9.2 mph 9.2 mph 52% 0.00 in 295.0 W/m2
16:02 41.4 °F 25.1 °F 30.11 in East 9.0 mph 9.0 mph 52% 0.00 in 325.0 W/m2
16:07 41.3 °F 24.5 °F 30.11 in East 7.0 mph 7.0 mph 51% 0.00 in 258.0 W/m2
16:12 40.8 °F 24.5 °F 30.10 in ENE 11.5 mph 11.5 mph 52% 0.00 in 209.0 W/m2
16:17 40.3 °F 24.1 °F 30.10 in ENE 11.5 mph 11.5 mph 52% 0.00 in 193.0 W/m2
16:22 40.0 °F 24.2 °F 30.10 in East 10.4 mph 10.4 mph 53% 0.00 in 171.0 W/m2
16:28 39.9 °F 24.6 °F 30.09 in East 9.2 mph 9.2 mph 54% 0.00 in 162.0 W/m2
16:33 39.9 °F 25.0 °F 30.09 in ENE 10.4 mph 10.4 mph 55% 0.00 in 181.0 W/m2
16:38 40.0 °F 24.7 °F 30.09 in ENE 10.4 mph 10.4 mph 54% 0.00 in 216.0 W/m2
16:43 40.1 °F 25.2 °F 30.09 in ENE 9.2 mph 9.2 mph 55% 0.00 in 214.0 W/m2
16:48 40.3 °F 25.0 °F 30.09 in NE 9.2 mph 9.2 mph 54% 0.00 in 192.0 W/m2
16:53 40.2 °F 24.9 °F 30.09 in ENE 8.1 mph 8.1 mph 54% 0.00 in 207.0 W/m2
16:58 40.2 °F 25.3 °F 30.09 in East 10.4 mph 10.4 mph 55% 0.00 in 237.0 W/m2
17:03 40.4 °F 25.1 °F 30.10 in East 8.0 mph 8.0 mph 54% 0.00 in 227.0 W/m2
17:08 40.4 °F 25.1 °F 30.10 in East 8.1 mph 8.1 mph 54% 0.00 in 192.0 W/m2
17:13 40.3 °F 25.0 °F 30.09 in ENE 11.5 mph 11.5 mph 54% 0.00 in 162.0 W/m2
17:18 40.1 °F 25.2 °F 30.09 in NE 10.4 mph 10.4 mph 55% 0.00 in 153.0 W/m2
17:23 40.0 °F 25.1 °F 30.08 in East 8.1 mph 8.1 mph 55% 0.00 in 167.0 W/m2
17:28 40.0 °F 25.1 °F 30.08 in East 8.1 mph 8.1 mph 55% 0.00 in 174.0 W/m2
17:33 40.1 °F 25.2 °F 30.08 in ENE 8.1 mph 8.1 mph 55% 0.00 in 195.0 W/m2
17:38 40.1 °F 25.2 °F 30.08 in NE 10.4 mph 10.4 mph 55% 0.00 in 148.0 W/m2
17:43 39.8 °F 24.9 °F 30.08 in ENE 8.1 mph 8.1 mph 55% 0.00 in 121.0 W/m2
17:48 39.6 °F 25.2 °F 30.08 in East 4.6 mph 4.6 mph 56% 0.00 in 98.0 W/m2
17:53 39.4 °F 25.0 °F 30.08 in East 8.1 mph 8.1 mph 56% 0.00 in 81.0 W/m2
17:58 39.1 °F 24.7 °F 30.09 in East 5.8 mph 5.8 mph 56% 0.00 in 76.0 W/m2
18:03 39.0 °F 22.8 °F 30.09 in SE 8.0 mph 8.0 mph 52% 0.00 in 70.0 W/m2
18:08 39.0 °F 21.9 °F 30.08 in East 8.1 mph 8.1 mph 50% 0.00 in 58.0 W/m2
18:13 38.9 °F 21.8 °F 30.08 in ESE 6.9 mph 6.9 mph 50% 0.00 in 42.0 W/m2
18:18 38.6 °F 22.5 °F 30.08 in East 6.9 mph 6.9 mph 52% 0.00 in 32.0 W/m2
18:23 38.3 °F 21.7 °F 30.08 in ESE 9.2 mph 9.2 mph 51% 0.00 in 28.0 W/m2
18:28 38.0 °F 21.5 °F 30.07 in East 8.1 mph 8.1 mph 51% 0.00 in 25.0 W/m2
18:33 37.9 °F 21.4 °F 30.07 in ESE 8.1 mph 8.1 mph 51% 0.00 in 23.0 W/m2
18:38 37.8 °F 21.3 °F 30.07 in ESE 8.1 mph 8.1 mph 51% 0.00 in 18.0 W/m2
18:43 37.7 °F 21.6 °F 30.08 in East 8.1 mph 8.1 mph 52% 0.00 in 12.0 W/m2
18:48 37.5 °F 21.5 °F 30.08 in East 6.9 mph 6.9 mph 52% 0.00 in 7.0 W/m2
18:53 37.3 °F 21.3 °F 30.08 in East 5.0 mph 5.0 mph 52% 0.00 in 0.0 W/m2
18:58 36.9 °F 21.8 °F 30.08 in ESE 3.5 mph 3.5 mph 54% 0.00 in 0.0 W/m2
19:03 36.5 °F 22.3 °F 30.08 in ESE 3.5 mph 3.5 mph 56% 0.00 in 0.0 W/m2
19:08 36.3 °F 22.1 °F 30.08 in ESE 3.5 mph 3.5 mph 56% 0.00 in 0.0 W/m2
19:13 36.2 °F 22.0 °F 30.08 in East 6.0 mph 6.0 mph 56% 0.00 in 0.0 W/m2
19:18 36.2 °F 22.0 °F 30.08 in East 3.5 mph 3.5 mph 56% 0.00 in 0.0 W/m2
19:23 36.2 °F 22.0 °F 30.08 in East 3.5 mph 3.5 mph 56% 0.00 in 0.0 W/m2
19:28 36.2 °F 22.0 °F 30.08 in East 4.6 mph 4.6 mph 56% 0.00 in 0.0 W/m2
19:33 36.1 °F 22.3 °F 30.08 in East 4.6 mph 4.6 mph 57% 0.00 in 0.0 W/m2
19:38 36.0 °F 22.2 °F 30.08 in East 5.0 mph 5.0 mph 57% 0.00 in 0.0 W/m2
19:43 36.0 °F 22.2 °F 30.08 in East 3.5 mph 3.5 mph 57% 0.00 in 0.0 W/m2
19:48 35.8 °F 22.5 °F 30.08 in East 3.5 mph 3.5 mph 58% 0.00 in 0.0 W/m2
19:53 35.8 °F 22.5 °F 30.08 in East 4.6 mph 4.6 mph 58% 0.00 in 0.0 W/m2
19:58 35.7 °F 21.9 °F 30.07 in ENE 4.6 mph 4.6 mph 57% 0.00 in 0.0 W/m2
20:03 35.8 °F 22.0 °F 30.07 in East 8.1 mph 8.1 mph 57% 0.00 in 0.0 W/m2
20:08 35.7 °F 21.9 °F 30.06 in ENE 6.9 mph 6.9 mph 57% 0.00 in 0.0 W/m2
20:13 35.4 °F 22.5 °F 30.06 in ENE 4.6 mph 4.6 mph 59% 0.00 in 0.0 W/m2
20:18 35.0 °F 22.5 °F 30.07 in ENE 3.5 mph 3.5 mph 60% 0.00 in 0.0 W/m2
20:23 34.6 °F 22.5 °F 30.07 in ENE 2.3 mph 2.3 mph 61% 0.00 in 0.0 W/m2
20:28 34.0 °F 23.5 °F 30.07 in NNE 5.8 mph 5.8 mph 65% 0.00 in 0.0 W/m2
20:33 32.8 °F 24.4 °F 30.07 in NE 4.6 mph 4.6 mph 71% 0.00 in 0.0 W/m2
20:38 32.0 °F 24.6 °F 30.07 in NE 4.0 mph 4.0 mph 74% 0.00 in 0.0 W/m2
20:43 31.5 °F 24.8 °F 30.07 in NE 3.5 mph 3.5 mph 76% 0.00 in 0.0 W/m2
20:48 31.3 °F 25.2 °F 30.07 in NE 5.8 mph 5.8 mph 78% 0.00 in 0.0 W/m2
20:53 31.2 °F 25.4 °F 30.05 in NE 11.5 mph 11.5 mph 79% 0.00 in 0.0 W/m2
20:58 31.1 °F 25.7 °F 30.05 in NE 9.2 mph 9.2 mph 80% 0.00 in 0.0 W/m2
21:03 31.2 °F 25.7 °F 30.05 in ENE 6.9 mph 6.9 mph 80% 0.00 in 0.0 W/m2
21:08 31.3 °F 25.8 °F 30.04 in NE 10.4 mph 10.4 mph 80% 0.00 in 0.0 W/m2
21:13 31.4 °F 25.9 °F 30.04 in ENE 6.9 mph 6.9 mph 80% 0.00 in 0.0 W/m2
21:18 31.5 °F 26.0 °F 30.05 in NE 8.1 mph 8.1 mph 80% 0.00 in 0.0 W/m2
21:23 31.6 °F 26.1 °F 30.05 in NE 4.6 mph 4.6 mph 80% 0.00 in 0.0 W/m2
21:28 31.6 °F 26.1 °F 30.05 in NE 6.9 mph 6.9 mph 80% 0.00 in 0.0 W/m2
21:33 31.6 °F 26.1 °F 30.05 in ENE 8.1 mph 8.1 mph 80% 0.00 in 0.0 W/m2
21:38 31.5 °F 26.0 °F 30.05 in ENE 5.8 mph 5.8 mph 80% 0.00 in 0.0 W/m2
21:43 31.5 °F 26.0 °F 30.05 in NE 4.6 mph 4.6 mph 80% 0.00 in 0.0 W/m2
21:48 31.5 °F 26.0 °F 30.06 in ENE 4.0 mph 4.0 mph 80% 0.00 in 0.0 W/m2
21:53 31.5 °F 26.0 °F 30.06 in NE 3.5 mph 3.5 mph 80% 0.00 in 0.0 W/m2
21:58 31.6 °F 26.1 °F 30.06 in NNE 3.5 mph 3.5 mph 80% 0.00 in 0.0 W/m2
22:03 31.7 °F 25.9 °F 30.06 in NE 3.5 mph 3.5 mph 79% 0.00 in 0.0 W/m2
22:08 31.9 °F 26.1 °F 30.06 in NE 3.5 mph 3.5 mph 79% 0.00 in 0.0 W/m2
22:13 32.0 °F 26.2 °F 30.07 in NNE 4.0 mph 4.0 mph 79% 0.00 in 0.0 W/m2
22:18 32.1 °F 26.3 °F 30.07 in NE 3.5 mph 3.5 mph 79% 0.00 in 0.0 W/m2
22:23 32.2 °F 26.4 °F 30.07 in NNE 3.5 mph   79% 0.00 in 0.0 W/m2
22:28 32.3 °F 26.2 °F 30.08 in Calm     78% 0.00 in 0.0 W/m2
22:33 32.4 °F 26.3 °F 30.07 in NNE 5.0 mph 5.0 mph 78% 0.00 in 0.0 W/m2
22:38 32.4 °F 26.3 °F 30.07 in NNE 3.0 mph 3.0 mph 78% 0.00 in 0.0 W/m2
22:43 32.5 °F 26.4 °F 30.07 in NNE 5.8 mph 5.8 mph 78% 0.00 in 0.0 W/m2
22:48 32.5 °F 26.4 °F 30.06 in NNE 4.6 mph 4.6 mph 78% 0.00 in 0.0 W/m2
22:53 32.5 °F 26.4 °F 30.06 in NE 4.6 mph 4.6 mph 78% 0.00 in 0.0 W/m2
22:58 32.5 °F 26.4 °F 30.06 in NNE 5.8 mph 5.8 mph 78% 0.00 in 0.0 W/m2
23:03 32.5 °F 26.7 °F 30.06 in NNE 5.8 mph 5.8 mph 79% 0.00 in 0.0 W/m2
23:08 32.5 °F 26.7 °F 30.06 in NE 4.6 mph 4.6 mph 79% 0.00 in 0.0 W/m2
23:13 32.4 °F 26.6 °F 30.05 in NNE 5.8 mph 5.8 mph 79% 0.00 in 0.0 W/m2
23:18 32.3 °F 26.5 °F 30.04 in NNE 11.5 mph 11.5 mph 79% 0.00 in 0.0 W/m2
23:23 32.3 °F 26.5 °F 30.04 in ENE 10.4 mph 10.4 mph 79% 0.00 in 0.0 W/m2
23:28 32.2 °F 26.4 °F 30.03 in ENE 4.6 mph 4.6 mph 79% 0.00 in 0.0 W/m2
23:33 32.2 °F 26.4 °F 30.02 in NE 11.5 mph 11.5 mph 79% 0.00 in 0.0 W/m2
23:38 32.2 °F 26.4 °F 30.04 in NNE 9.2 mph 9.2 mph 79% 0.00 in 0.0 W/m2
23:43 32.3 °F 26.2 °F 30.04 in NE 6.9 mph 6.9 mph 78% 0.00 in 0.0 W/m2
23:48 32.3 °F 26.2 °F 30.04 in NNE 8.1 mph 8.1 mph 78% 0.00 in 0.0 W/m2
23:53 32.4 °F 26.3 °F 30.04 in NE 4.6 mph 4.6 mph 78% 0.00 in 0.0 W/m2
23:58 32.4 °F 26.6 °F 30.04 in ENE 3.5 mph 3.5 mph 79% 0.00 in 0.0 W/m2
Bourbonnais, Illinois, USA
Compliments of Weather Underground - 2 mb